Time;durP1;ratioP1;P1;durP2;ratioP2;P2;SDS_P1;SDS_P2;PMS_P1;PMS_P2;Temp;Humidity;BMP_temperature;BMP_pressure;BME280_temperature;BME280_humidity;BME280_pressure;Samples;Min_cycle;Max_cycle;Signal;HPM_P1;HPM_P2
2022/03/30 00:00:11;;;;;;;34.00;26.40;;;11.10;99.90;;;;;;5113101;28;20195;-75
2022/03/30 00:02:38;;;;;;;34.67;25.37;;;11.10;99.90;;;;;;5113129;28;20196;-75
2022/03/30 00:05:05;;;;;;;34.73;25.53;;;11.00;99.90;;;;;;5112888;28;20225;-79
2022/03/30 00:07:32;;;;;;;34.10;25.63;;;10.80;99.90;;;;;;5107697;28;20200;-75
2022/03/30 00:09:59;;;;;;;38.63;26.53;;;10.90;99.90;;;;;;5091508;28;20251;-75
2022/03/30 00:12:26;;;;;;;32.23;25.27;;;10.80;99.90;;;;;;5092330;28;20205;-75
2022/03/30 00:14:53;;;;;;;35.65;28.35;;;10.90;99.90;;;;;;5092335;28;20422;-75
2022/03/30 00:17:21;;;;;;;34.97;26.27;;;11.00;99.90;;;;;;5092400;28;20208;-78
2022/03/30 00:19:48;;;;;;;38.03;26.00;;;10.80;99.90;;;;;;5092398;28;20201;-75
2022/03/30 00:22:15;;;;;;;34.70;25.83;;;10.60;99.90;;;;;;5094453;28;20208;-79
2022/03/30 00:24:43;;;;;;;34.67;24.70;;;10.60;99.90;;;;;;5096240;28;20231;-76
2022/03/30 00:27:10;;;;;;;37.03;25.70;;;10.60;99.90;;;;;;5096341;28;20203;-76
2022/03/30 00:29:38;;;;;;;35.37;26.40;;;10.80;99.90;;;;;;5096025;28;20712;-77
2022/03/30 00:32:06;;;;;;;34.47;26.37;;;10.80;99.90;;;;;;5096436;28;20201;-80
2022/03/30 00:34:34;;;;;;;40.20;26.10;;;10.50;99.90;;;;;;5096059;28;20649;-74
2022/03/30 00:37:01;;;;;;;39.20;27.10;;;10.50;99.90;;;;;;5096037;28;20193;-74
2022/03/30 00:39:28;;;;;;;40.43;32.77;;;10.40;99.90;;;;;;5095030;28;20945;-75
2022/03/30 00:41:55;;;;;;;38.03;28.00;;;10.60;99.90;;;;;;5095963;28;20781;-75
2022/03/30 00:44:22;;;;;;;40.97;27.77;;;10.40;99.90;;;;;;5096090;28;20244;-75
2022/03/30 00:46:49;;;;;;;40.37;28.17;;;10.50;99.90;;;;;;5095853;28;20205;-75
2022/03/30 00:49:15;;;;;;;41.50;29.00;;;10.20;99.90;;;;;;5096232;28;20201;-74
2022/03/30 00:51:44;;;;;;;42.40;28.73;;;10.10;99.90;;;;;;5095240;28;20660;-77
2022/03/30 00:54:11;;;;;;;43.67;28.50;;;10.30;99.90;;;;;;5096351;28;20201;-77
2022/03/30 00:56:40;;;;;;;42.90;28.77;;;10.20;99.90;;;;;;5098064;28;20212;-79
2022/03/30 00:59:07;;;;;;;41.70;29.20;;;10.10;99.90;;;;;;5106081;28;20197;-75
2022/03/30 01:01:35;;;;;;;39.07;28.23;;;9.90;99.90;;;;;;5105999;28;20201;-75
2022/03/30 01:04:03;;;;;;;44.70;35.38;;;9.90;99.90;;;;;;5107083;28;20437;-75
2022/03/30 01:06:30;;;;;;;40.10;29.93;;;10.00;99.90;;;;;;5108563;28;20721;-76
2022/03/30 01:08:59;;;;;;;43.40;29.47;;;10.10;99.90;;;;;;5109175;28;20239;-74
2022/03/30 01:11:28;;;;;;;43.67;28.53;;;9.90;99.90;;;;;;5102869;28;20209;-75
2022/03/30 01:13:55;;;;;;;39.60;28.23;;;9.90;99.90;;;;;;5095417;28;20251;-74
2022/03/30 01:16:23;;;;;;;42.97;28.20;;;9.90;99.90;;;;;;5095205;28;20676;-75
2022/03/30 01:18:50;;;;;;;38.20;27.30;;;9.80;99.90;;;;;;5095358;28;20564;-75
2022/03/30 01:21:18;;;;;;;41.97;29.47;;;9.80;99.90;;;;;;5095085;28;20189;-76
2022/03/30 01:23:45;;;;;;;41.77;27.77;;;9.90;99.90;;;;;;5095583;28;20232;-75
2022/03/30 01:26:12;;;;;;;37.60;26.83;;;9.90;99.90;;;;;;5095783;28;20288;-76
2022/03/30 01:28:39;;;;;;;36.07;27.37;;;9.90;99.90;;;;;;5095073;28;20696;-75
2022/03/30 01:33:50;;;;;;;37.80;28.30;;;9.90;99.90;;;;;;5095093;28;20204;-74
2022/03/30 01:36:19;;;;;;;42.30;28.73;;;9.70;99.90;;;;;;5095349;28;20292;-76
2022/03/30 01:38:46;;;;;;;43.03;27.47;;;9.70;99.90;;;;;;5094999;28;20231;-74
2022/03/30 01:41:13;;;;;;;39.23;28.23;;;9.70;99.90;;;;;;5095197;28;20676;-74
2022/03/30 01:43:40;;;;;;;43.03;29.53;;;9.70;99.90;;;;;;5094894;28;20294;-79
2022/03/30 01:46:06;;;;;;;43.87;28.17;;;9.80;99.90;;;;;;5095032;28;20209;-75
2022/03/30 01:48:33;;;;;;;40.40;28.23;;;9.90;99.90;;;;;;5094698;28;20540;-76
2022/03/30 01:51:01;;;;;;;42.10;27.07;;;9.80;99.90;;;;;;5094801;28;20196;-74
2022/03/30 01:53:29;;;;;;;37.77;26.53;;;9.90;99.90;;;;;;5094715;28;20198;-76
2022/03/30 01:55:56;;;;;;;41.77;28.20;;;9.80;99.90;;;;;;5094464;28;20208;-75
2022/03/30 01:58:23;;;;;;;36.97;26.87;;;9.70;99.90;;;;;;5094429;28;20209;-74
2022/03/30 02:00:50;;;;;;;42.10;27.30;;;9.60;99.90;;;;;;5094900;28;20212;-74
2022/03/30 02:03:17;;;;;;;37.00;27.07;;;9.40;99.90;;;;;;5094118;28;20283;-74
2022/03/30 02:05:43;;;;;;;42.50;27.07;;;9.40;99.90;;;;;;5094613;28;20217;-77
2022/03/30 02:08:10;;;;;;;43.33;27.60;;;9.50;99.90;;;;;;5094521;28;20185;-78
2022/03/30 02:10:39;;;;;;;38.63;27.63;;;9.50;99.90;;;;;;5094351;28;20186;-75
2022/03/30 02:13:06;;;;;;;45.30;27.00;;;9.30;99.90;;;;;;5094224;28;20236;-74
2022/03/30 02:15:33;;;;;;;40.37;27.13;;;9.20;99.90;;;;;;5094504;28;20205;-75
2022/03/30 02:17:59;;;;;;;39.60;26.60;;;9.30;99.90;;;;;;5093676;28;20669;-75
2022/03/30 02:20:26;;;;;;;41.50;26.73;;;9.40;99.90;;;;;;5094194;28;20205;-75
2022/03/30 02:22:53;;;;;;;37.23;26.73;;;9.30;99.90;;;;;;5094099;28;20204;-77
2022/03/30 02:25:22;;;;;;;40.07;27.17;;;9.30;99.90;;;;;;5094211;28;20244;-76
2022/03/30 02:27:50;;;;;;;37.93;27.30;;;9.20;99.90;;;;;;5094175;28;20572;-76
2022/03/30 02:30:17;;;;;;;41.67;27.13;;;9.40;99.90;;;;;;5094273;28;20217;-74
2022/03/30 02:32:44;;;;;;;39.70;27.30;;;9.30;99.90;;;;;;5093973;28;20204;-74
2022/03/30 02:35:12;;;;;;;41.20;26.57;;;9.20;99.90;;;;;;5093992;28;20205;-75
2022/03/30 02:37:39;;;;;;;41.60;26.37;;;9.10;99.90;;;;;;5094066;28;20565;-78
2022/03/30 02:40:07;;;;;;;40.90;26.50;;;9.00;99.90;;;;;;5093575;28;20205;-74
2022/03/30 02:42:34;;;;;;;40.80;26.63;;;9.10;99.90;;;;;;5094083;28;20190;-75
2022/03/30 02:45:02;;;;;;;37.63;25.47;;;9.00;99.90;;;;;;5093127;28;20299;-75
2022/03/30 02:50:18;;;;;;;36.43;25.13;;;9.20;99.90;;;;;;5072458;28;20219;-75
2022/03/30 02:52:45;;;;;;;38.53;25.90;;;9.10;99.90;;;;;;5093848;28;20208;-76
2022/03/30 02:55:12;;;;;;;44.27;26.17;;;9.10;99.90;;;;;;5093828;28;20201;-75
2022/03/30 02:57:40;;;;;;;40.57;25.27;;;9.10;99.90;;;;;;5093788;28;20224;-74
2022/03/30 03:00:10;;;;;;;38.50;24.20;;;9.20;99.90;;;;;;5093579;28;20211;-75
2022/03/30 03:02:37;;;;;;;41.05;30.33;;;9.10;99.90;;;;;;5092276;28;20433;-75
2022/03/30 03:05:05;;;;;;;36.40;26.17;;;9.20;99.90;;;;;;5093653;28;20224;-75
2022/03/30 03:07:31;;;;;;;38.63;26.60;;;9.30;99.90;;;;;;5092841;28;20205;-76
2022/03/30 03:09:58;;;;;;;35.77;24.30;;;9.40;99.90;;;;;;5091846;28;20624;-74
2022/03/30 03:12:25;;;;;;;40.53;24.93;;;9.50;99.90;;;;;;5092137;28;20204;-79
2022/03/30 03:14:52;;;;;;;37.77;24.83;;;9.30;99.90;;;;;;5093327;28;20205;-75
2022/03/30 03:17:20;;;;;;;40.13;24.20;;;9.20;99.90;;;;;;5093067;28;20212;-76
2022/03/30 03:19:47;;;;;;;36.03;24.50;;;9.30;99.90;;;;;;5093094;28;20227;-75
2022/03/30 03:22:14;;;;;;;36.00;24.20;;;9.40;99.90;;;;;;5093299;28;20564;-76
2022/03/30 03:24:40;;;;;;;39.53;24.23;;;9.30;99.90;;;;;;5093329;28;20221;-78
2022/03/30 03:27:07;;;;;;;38.80;24.00;;;9.30;99.90;;;;;;5092779;28;20220;-79
2022/03/30 03:29:34;;;;;;;40.57;24.63;;;9.10;99.90;;;;;;5093063;28;20235;-76
2022/03/30 03:32:01;;;;;;;34.50;24.27;;;9.10;99.90;;;;;;5092911;28;20223;-74
2022/03/30 03:34:29;;;;;;;35.40;23.03;;;9.10;99.90;;;;;;5093262;28;20205;-74
2022/03/30 03:36:56;;;;;;;38.67;24.33;;;9.00;99.90;;;;;;5093232;28;20205;-78
2022/03/30 03:39:23;;;;;;;38.83;23.90;;;9.00;99.90;;;;;;5092846;28;20208;-76
2022/03/30 03:41:49;;;;;;;39.57;23.73;;;8.90;99.90;;;;;;5093287;28;20189;-74
2022/03/30 03:44:16;;;;;;;31.13;22.97;;;8.90;99.90;;;;;;5092981;28;20574;-76
2022/03/30 03:46:43;;;;;;;35.77;22.77;;;8.90;99.90;;;;;;5092867;28;20212;-74
2022/03/30 03:49:10;;;;;;;34.30;23.67;;;8.80;99.90;;;;;;5093001;28;20531;-75
2022/03/30 03:51:38;;;;;;;34.87;22.90;;;8.80;99.90;;;;;;5092933;28;20205;-77
2022/03/30 03:54:05;;;;;;;39.27;24.03;;;8.80;99.90;;;;;;5093156;28;20205;-75
2022/03/30 03:56:32;;;;;;;36.23;22.10;;;8.80;99.90;;;;;;5096362;28;20190;-77
2022/03/30 03:58:59;;;;;;;34.70;22.30;;;8.90;99.90;;;;;;5097049;28;20656;-73
2022/03/30 04:01:27;;;;;;;31.37;22.40;;;9.00;99.90;;;;;;5096773;28;20208;-74
2022/03/30 04:03:54;;;;;;;39.57;23.43;;;9.00;99.90;;;;;;5097311;28;20243;-74
2022/03/30 04:06:21;;;;;;;30.40;21.53;;;9.00;99.90;;;;;;5096739;28;20243;-75
2022/03/30 04:08:50;;;;;;;33.27;22.73;;;9.10;99.90;;;;;;5096901;28;20189;-75
2022/03/30 04:11:16;;;;;;;39.37;23.53;;;9.30;99.90;;;;;;5096808;28;20201;-75
2022/03/30 04:13:45;;;;;;;36.60;21.67;;;9.00;99.90;;;;;;5096509;28;20212;-79
2022/03/30 04:16:11;;;;;;;36.20;22.57;;;9.00;99.90;;;;;;5096441;28;20213;-75
2022/03/30 04:18:38;;;;;;;39.93;23.77;;;9.00;99.90;;;;;;5096290;28;20211;-75
2022/03/30 04:21:05;;;;;;;40.00;23.33;;;9.10;99.90;;;;;;5096400;28;20209;-76
2022/03/30 04:23:32;;;;;;;38.80;23.03;;;9.10;99.90;;;;;;5096713;28;20205;-75
2022/03/30 04:26:00;;;;;;;36.17;22.37;;;9.20;99.90;;;;;;5096397;28;20231;-76
2022/03/30 04:28:27;;;;;;;40.60;22.63;;;9.30;99.90;;;;;;5096135;28;20208;-77
2022/03/30 04:30:54;;;;;;;36.67;21.23;;;9.20;99.90;;;;;;5096347;28;20215;-74
2022/03/30 04:33:21;;;;;;;36.70;21.60;;;8.90;99.90;;;;;;5096581;28;20201;-75
2022/03/30 04:35:48;;;;;;;36.63;23.00;;;9.00;99.90;;;;;;5096403;28;20567;-77
2022/03/30 04:38:15;;;;;;;33.77;21.37;;;9.10;99.90;;;;;;5096307;28;20570;-75
2022/03/30 04:40:42;;;;;;;40.97;21.83;;;9.00;99.90;;;;;;5096164;28;20205;-79
2022/03/30 04:43:10;;;;;;;34.80;21.70;;;9.00;99.90;;;;;;5096422;28;20211;-75
2022/03/30 04:45:37;;;;;;;36.13;20.87;;;8.90;99.90;;;;;;5096438;28;20240;-75
2022/03/30 04:48:04;;;;;;;33.53;21.60;;;8.80;99.90;;;;;;5095941;28;20559;-75
2022/03/30 04:50:31;;;;;;;32.17;20.33;;;9.00;99.90;;;;;;5096088;28;20204;-75
2022/03/30 04:52:58;;;;;;;31.07;20.23;;;8.90;99.90;;;;;;5096074;28;20193;-75
2022/03/30 04:55:26;;;;;;;31.00;20.03;;;8.80;99.90;;;;;;5095902;28;20209;-75
2022/03/30 04:57:52;;;;;;;31.60;20.27;;;8.80;99.90;;;;;;5095772;28;20206;-78
2022/03/30 05:00:21;;;;;;;33.27;20.87;;;9.00;99.90;;;;;;5095441;28;20208;-74
2022/03/30 05:02:48;;;;;;;35.53;21.37;;;9.10;99.90;;;;;;5103821;28;20209;-77
2022/03/30 05:05:14;;;;;;;33.57;21.80;;;8.80;99.90;;;;;;5095857;28;20221;-75
2022/03/30 05:07:41;;;;;;;38.80;21.13;;;8.70;99.90;;;;;;5094204;28;20574;-75
2022/03/30 05:10:11;;;;;;;34.53;20.10;;;8.50;99.90;;;;;;5094725;28;20197;-79
2022/03/30 05:12:38;;;;;;;32.17;20.17;;;8.40;99.90;;;;;;5095400;28;20205;-75
2022/03/30 05:15:05;;;;;;;34.20;20.67;;;8.50;99.90;;;;;;5095547;28;20216;-77
2022/03/30 05:17:34;;;;;;;34.93;19.83;;;8.50;99.90;;;;;;5095830;28;20201;-75
2022/03/30 05:20:00;;;;;;;34.90;20.50;;;8.50;99.90;;;;;;5095593;28;20208;-77
2022/03/30 05:22:27;;;;;;;31.10;19.67;;;8.40;99.90;;;;;;5095263;28;20204;-75
2022/03/30 05:24:54;;;;;;;33.13;22.05;;;8.60;99.90;;;;;;5094898;28;20905;-77
2022/03/30 05:27:21;;;;;;;36.37;20.73;;;8.70;99.90;;;;;;5095309;28;20622;-75
2022/03/30 05:29:48;;;;;;;33.97;20.60;;;8.60;99.90;;;;;;5095345;28;20221;-76
2022/03/30 05:32:14;;;;;;;42.57;20.30;;;8.40;99.90;;;;;;5095307;28;20196;-75
2022/03/30 05:34:43;;;;;;;33.10;20.57;;;8.40;99.90;;;;;;5095395;28;20209;-78
2022/03/30 05:37:10;;;;;;;41.17;20.33;;;8.30;99.90;;;;;;5095249;28;20201;-78
2022/03/30 05:39:41;;;;;;;34.27;19.90;;;8.30;99.90;;;;;;5094639;28;20594;-75
2022/03/30 05:42:08;;;;;;;36.00;21.37;;;8.20;99.90;;;;;;5094537;28;20213;-77
2022/03/30 05:44:36;;;;;;;33.33;20.60;;;8.30;99.90;;;;;;5094968;28;20204;-74
2022/03/30 05:47:04;;;;;;;39.23;19.60;;;8.30;99.90;;;;;;5094889;28;20208;-76
2022/03/30 05:49:30;;;;;;;35.07;23.47;;;8.20;99.90;;;;;;5094062;28;20770;-78
2022/03/30 05:52:01;;;;;;;37.33;21.37;;;8.40;99.90;;;;;;5093932;28;20205;-76
2022/03/30 05:54:28;;;;;;;32.23;19.77;;;8.40;99.90;;;;;;5094943;28;20268;-75
2022/03/30 05:57:01;;;;;;;37.83;20.77;;;8.30;99.90;;;;;;5093854;28;20233;-75
2022/03/30 05:59:29;;;;;;;38.30;19.80;;;8.10;99.90;;;;;;5094930;28;20201;-75
2022/03/30 06:01:56;;;;;;;28.73;19.47;;;8.40;99.90;;;;;;5109125;28;20196;-75
2022/03/30 06:04:22;;;;;;;36.53;20.73;;;8.40;99.90;;;;;;5103877;28;20193;-80
2022/03/30 06:06:50;;;;;;;33.63;19.87;;;8.50;99.90;;;;;;5105627;28;20217;-76
2022/03/30 06:09:19;;;;;;;31.37;20.07;;;8.40;99.90;;;;;;5104836;28;20652;-76
2022/03/30 06:11:46;;;;;;;33.20;21.67;;;8.60;99.90;;;;;;5102869;28;20188;-75
2022/03/30 06:14:14;;;;;;;32.03;20.63;;;8.40;99.90;;;;;;5105032;28;20181;-78
2022/03/30 06:16:41;;;;;;;40.97;20.20;;;8.40;99.90;;;;;;5103931;28;20230;-78
2022/03/30 06:19:09;;;;;;;36.50;20.20;;;8.40;99.90;;;;;;5103908;28;20201;-80
2022/03/30 06:21:37;;;;;;;34.60;19.90;;;8.40;99.90;;;;;;5104218;28;20185;-75
2022/03/30 06:24:04;;;;;;;30.80;20.47;;;8.50;99.90;;;;;;5104658;28;20186;-75
2022/03/30 06:26:34;;;;;;;32.27;20.37;;;8.60;99.90;;;;;;5102182;28;20228;-79
2022/03/30 06:29:01;;;;;;;28.93;20.47;;;8.70;99.90;;;;;;5104579;28;20692;-81
2022/03/30 06:31:27;;;;;;;33.77;20.57;;;8.80;99.90;;;;;;5103550;28;20199;-77
2022/03/30 06:33:54;;;;;;;37.00;20.77;;;8.80;99.90;;;;;;5103846;28;20188;-74
2022/03/30 06:36:21;;;;;;;35.03;21.00;;;8.80;99.90;;;;;;5105327;28;20200;-76
2022/03/30 06:38:48;;;;;;;36.30;20.33;;;8.80;99.90;;;;;;5102607;28;20203;-80
2022/03/30 06:41:16;;;;;;;37.30;20.47;;;8.90;99.90;;;;;;5105600;28;20217;-76
2022/03/30 06:43:46;;;;;;;42.50;20.70;;;8.70;99.90;;;;;;5102302;28;20196;-76
2022/03/30 06:46:13;;;;;;;35.70;20.10;;;8.90;99.90;;;;;;5098537;28;20208;-77
2022/03/30 06:48:40;;;;;;;40.37;20.53;;;9.10;99.90;;;;;;5109637;28;20196;-77
2022/03/30 06:51:07;;;;;;;37.60;20.60;;;9.20;99.90;;;;;;5094502;28;20208;-77
2022/03/30 06:53:34;;;;;;;33.03;19.43;;;9.30;99.90;;;;;;5093350;28;20203;-76
2022/03/30 06:56:01;;;;;;;34.40;20.30;;;9.00;99.90;;;;;;5093745;28;20189;-79
2022/03/30 06:58:27;;;;;;;37.53;20.40;;;9.10;99.90;;;;;;5093846;28;20197;-75
2022/03/30 07:00:58;;;;;;;31.57;19.40;;;9.10;99.90;;;;;;5093840;28;20208;-76
2022/03/30 07:03:26;;;;;;;36.93;20.20;;;9.10;99.90;;;;;;5091967;28;20647;-80
2022/03/30 07:05:53;;;;;;;36.03;20.37;;;9.10;99.90;;;;;;5091723;28;20625;-77
2022/03/30 07:11:04;;;;;;;40.77;20.60;;;9.10;99.90;;;;;;5093937;28;20200;-79
2022/03/30 07:13:31;;;;;;;35.87;20.30;;;9.00;99.90;;;;;;5093464;28;20196;-81
2022/03/30 07:16:00;;;;;;;36.20;20.37;;;9.10;99.90;;;;;;5093673;28;20266;-77
2022/03/30 07:18:27;;;;;;;28.93;18.80;;;8.90;99.90;;;;;;5092799;28;20634;-79
2022/03/30 07:20:54;;;;;;;35.00;18.50;;;8.80;99.90;;;;;;5093882;28;20547;-81
2022/03/30 07:23:23;;;;;;;35.73;19.53;;;8.80;99.90;;;;;;5093219;28;20208;-77
2022/03/30 07:25:50;;;;;;;33.13;23.38;;;8.80;99.90;;;;;;5092407;28;20963;-79
2022/03/30 07:28:16;;;;;;;33.00;20.00;;;9.20;99.90;;;;;;5093264;28;20213;-80
2022/03/30 07:30:45;;;;;;;35.07;19.47;;;9.30;99.90;;;;;;5093052;28;20548;-79
2022/03/30 07:33:13;;;;;;;30.77;20.00;;;9.30;99.90;;;;;;5093218;28;20193;-78
2022/03/30 07:35:46;;;;;;;38.57;19.97;;;9.30;99.90;;;;;;5093266;28;20219;-81
2022/03/30 07:38:13;;;;;;;29.83;18.30;;;9.50;99.90;;;;;;5092585;28;20201;-80
2022/03/30 07:40:42;;;;;;;34.63;18.43;;;9.70;99.90;;;;;;5093191;28;20735;-80
2022/03/30 07:43:09;;;;;;;28.33;17.60;;;9.90;99.90;;;;;;5094431;28;20196;-81
2022/03/30 07:45:37;;;;;;;33.37;18.87;;;9.60;99.90;;;;;;5093807;28;20224;-87
2022/03/30 07:48:05;;;;;;;33.63;19.27;;;9.30;99.90;;;;;;5093454;28;20201;-81
2022/03/30 07:50:38;;;;;;;29.17;18.60;;;9.60;99.90;;;;;;5094851;28;20201;-80
2022/03/30 07:53:07;;;;;;;28.43;17.87;;;9.50;99.90;;;;;;5094374;28;20205;-80
2022/03/30 07:55:38;;;;;;;30.30;17.37;;;9.40;99.90;;;;;;5094300;28;20284;-84
2022/03/30 07:58:05;;;;;;;33.20;17.30;;;9.40;99.90;;;;;;5106568;28;20196;-88
2022/03/30 08:00:32;;;;;;;29.67;17.70;;;9.40;99.90;;;;;;5103643;28;20193;-83
2022/03/30 08:03:01;;;;;;;30.57;17.20;;;9.50;99.90;;;;;;5090902;28;20196;-83
2022/03/30 08:05:29;;;;;;;25.93;17.73;;;9.70;99.90;;;;;;5108964;28;20185;-87
2022/03/30 08:08:00;;;;;;;29.73;17.67;;;9.90;99.90;;;;;;5107626;28;20190;-84
2022/03/30 08:10:28;;;;;;;33.97;17.80;;;10.00;99.90;;;;;;5103632;28;20247;-83
2022/03/30 08:12:57;;;;;;;37.17;21.08;;;10.20;99.90;;;;;;5094172;28;20955;-89
2022/03/30 08:15:24;;;;;;;31.58;20.83;;;10.40;99.90;;;;;;5095503;28;20430;-84
2022/03/30 08:17:54;;;;;;;31.40;17.77;;;10.80;99.90;;;;;;5094147;28;20201;-84
2022/03/30 08:23:13;;;;;;;31.27;17.03;;;10.70;99.90;;;;;;5093559;28;20227;-88
2022/03/30 08:25:40;;;;;;;27.27;17.73;;;10.50;99.90;;;;;;5094337;28;20209;-82
2022/03/30 08:28:13;;;;;;;27.13;16.50;;;10.40;99.90;;;;;;5094005;28;20201;-86
2022/03/30 08:30:40;;;;;;;29.13;16.97;;;10.50;99.90;;;;;;5110265;28;20275;-83
2022/03/30 08:33:07;;;;;;;28.33;17.47;;;10.60;99.90;;;;;;5103635;28;20591;-83
2022/03/30 08:35:36;;;;;;;30.13;16.40;;;10.50;99.90;;;;;;5110141;28;20196;-82
2022/03/30 08:38:04;;;;;;;29.50;20.30;;;10.20;99.90;;;;;;5111754;28;20417;-84
2022/03/30 08:40:34;;;;;;;27.70;17.77;;;10.30;99.90;;;;;;5114009;28;20586;-82
2022/03/30 08:43:01;;;;;;;27.83;17.37;;;10.30;99.90;;;;;;5115449;28;20207;-82
2022/03/30 08:45:30;;;;;;;24.27;17.10;;;10.20;99.90;;;;;;5117370;28;20196;-81
2022/03/30 08:48:01;;;;;;;29.60;17.53;;;10.30;99.90;;;;;;5117461;27;20232;-85
2022/03/30 08:50:30;;;;;;;29.00;16.27;;;10.30;99.90;;;;;;5117874;28;20208;-82
2022/03/30 08:53:04;;;;;;;29.77;16.87;;;10.20;99.90;;;;;;5116909;28;20671;-88
2022/03/30 08:55:33;;;;;;;26.53;16.50;;;10.60;99.90;;;;;;5116175;28;20204;-82
2022/03/30 08:58:06;;;;;;;34.63;16.17;;;10.60;99.90;;;;;;5110338;28;20289;-84
2022/03/30 09:00:34;;;;;;;26.52;17.00;;;10.70;99.90;;;;;;5111441;28;20420;-86
2022/03/30 09:03:06;;;;;;;23.93;16.43;;;11.00;99.90;;;;;;5118123;28;20196;-79
2022/03/30 09:05:37;;;;;;;28.73;16.33;;;11.10;99.90;;;;;;5116864;28;20640;-79
2022/03/30 09:08:17;;;;;;;27.30;16.70;;;11.10;99.90;;;;;;5117509;28;20299;-83
2022/03/30 09:10:49;;;;;;;25.17;16.27;;;11.10;99.90;;;;;;5119309;28;20276;-83
2022/03/30 09:13:17;;;;;;;25.07;16.47;;;11.30;99.90;;;;;;5118775;28;20200;-83
2022/03/30 09:15:47;;;;;;;25.40;15.93;;;11.20;99.90;;;;;;5118864;28;20214;-86
2022/03/30 09:18:15;;;;;;;31.47;16.00;;;11.10;99.90;;;;;;5105213;28;20200;-80
2022/03/30 09:20:45;;;;;;;27.13;16.07;;;11.00;99.90;;;;;;5115330;28;20196;-81
2022/03/30 09:23:13;;;;;;;26.20;15.90;;;11.20;99.90;;;;;;5121871;28;20200;-82
2022/03/30 09:25:44;;;;;;;30.83;20.20;;;11.20;99.90;;;;;;5117731;28;20515;-81
2022/03/30 09:28:12;;;;;;;29.17;17.63;;;11.30;99.90;;;;;;5118346;28;20433;-81
2022/03/30 09:30:40;;;;;;;22.93;15.53;;;11.30;99.90;;;;;;5119972;28;20196;-84
2022/03/30 09:33:10;;;;;;;28.57;16.47;;;11.10;99.90;;;;;;5117882;28;20208;-83
2022/03/30 09:35:40;;;;;;;25.07;15.97;;;10.90;99.90;;;;;;5118061;28;20667;-82
2022/03/30 09:38:09;;;;;;;27.13;15.50;;;11.00;99.90;;;;;;5119111;28;20530;-81
2022/03/30 09:40:37;;;;;;;27.27;15.87;;;11.20;99.90;;;;;;5119571;28;20215;-83
2022/03/30 09:43:21;;;;;;;25.43;15.17;;;11.60;99.90;;;;;;5119332;28;20544;-81
2022/03/30 09:45:51;;;;;;;27.27;15.07;;;11.70;99.90;;;;;;5120811;28;20720;-81
2022/03/30 09:48:25;;;;;;;24.85;16.50;;;11.90;99.90;;;;;;5119837;28;20437;-81
2022/03/30 09:50:53;;;;;;;24.73;15.63;;;11.90;99.90;;;;;;5121866;28;20219;-82
2022/03/30 09:53:23;;;;;;;25.87;16.07;;;11.90;99.90;;;;;;5119854;28;20184;-81
2022/03/30 09:55:59;;;;;;;22.97;14.97;;;11.50;99.90;;;;;;5120105;28;20204;-87
2022/03/30 09:58:34;;;;;;;21.50;14.23;;;11.60;99.90;;;;;;5118440;28;20211;-86
2022/03/30 10:01:20;;;;;;;26.07;15.40;;;11.40;99.90;;;;;;5118526;28;20202;-79
2022/03/30 10:03:50;;;;;;;28.23;15.10;;;11.20;99.90;;;;;;5118191;28;20291;-83
2022/03/30 10:06:20;;;;;;;25.03;15.33;;;11.30;99.90;;;;;;5119491;28;20235;-80
2022/03/30 10:08:49;;;;;;;24.50;15.23;;;11.30;99.90;;;;;;5117264;28;20311;-80
2022/03/30 10:11:17;;;;;;;24.23;14.17;;;11.30;99.90;;;;;;5112801;28;20200;-80
2022/03/30 10:13:47;;;;;;;21.57;15.67;;;11.60;99.90;;;;;;5105282;28;20508;-81
2022/03/30 10:16:17;;;;;;;20.93;15.03;;;11.90;99.90;;;;;;5106200;28;20209;-82
2022/03/30 10:18:44;;;;;;;25.13;14.17;;;11.90;99.90;;;;;;5105105;28;20566;-81
2022/03/30 10:21:23;;;;;;;23.93;14.43;;;11.60;99.90;;;;;;5104922;28;20193;-80
2022/03/30 10:24:13;;;;;;;25.43;15.20;;;12.00;99.90;;;;;;5105298;28;20235;-82
2022/03/30 10:26:51;;;;;;;19.90;15.30;;;12.30;99.90;;;;;;5104185;28;20242;-81
2022/03/30 10:29:22;;;;;;;20.67;14.67;;;11.90;99.90;;;;;;5104576;28;20221;-80
2022/03/30 10:32:08;;;;;;;25.57;14.83;;;11.60;99.90;;;;;;5103351;28;20206;-82
2022/03/30 10:34:42;;;;;;;21.20;14.93;;;11.40;99.90;;;;;;5110154;28;20670;-79
2022/03/30 10:37:10;;;;;;;24.33;14.40;;;11.60;99.90;;;;;;5105634;28;20636;-80
2022/03/30 10:39:55;;;;;;;22.80;15.03;;;11.70;99.90;;;;;;5096853;28;20296;-79
2022/03/30 10:42:22;;;;;;;17.20;14.63;;;12.00;99.90;;;;;;5094155;28;20208;-80
2022/03/30 10:44:55;;;;;;;23.13;15.63;;;11.80;99.90;;;;;;5093046;28;20207;-80
2022/03/30 10:47:25;;;;;;;22.83;15.87;;;11.90;99.90;;;;;;5093807;28;20223;-80
2022/03/30 10:49:54;;;;;;;22.03;14.83;;;12.10;99.90;;;;;;5093813;28;20298;-79
2022/03/30 10:52:37;;;;;;;24.65;17.58;;;12.10;99.90;;;;;;5093276;28;20458;-79
2022/03/30 10:55:36;;;;;;;24.80;16.00;;;11.90;99.90;;;;;;5093739;28;20202;-80
2022/03/30 10:58:05;;;;;;;20.40;15.40;;;12.10;99.90;;;;;;5093421;28;20207;-79
2022/03/30 11:00:37;;;;;;;21.90;15.33;;;12.60;99.90;;;;;;5093062;28;20204;-81
2022/03/30 11:03:12;;;;;;;26.03;15.13;;;12.70;99.90;;;;;;5108038;28;20209;-79
2022/03/30 11:05:44;;;;;;;22.40;14.67;;;13.10;99.90;;;;;;5092805;28;20566;-82
2022/03/30 11:08:48;;;;;;;24.23;15.03;;;13.50;99.90;;;;;;5093717;28;20583;-82
2022/03/30 11:11:22;;;;;;;22.67;15.30;;;13.10;99.90;;;;;;5088441;28;20276;-80
2022/03/30 11:13:49;;;;;;;29.03;15.33;;;13.10;99.90;;;;;;5093595;28;20194;-80
2022/03/30 11:16:17;;;;;;;22.13;15.33;;;13.10;99.90;;;;;;5093067;28;20212;-80
2022/03/30 11:18:59;;;;;;;19.40;13.63;;;13.40;99.90;;;;;;5093366;28;20197;-79
2022/03/30 11:21:27;;;;;;;24.63;14.97;;;13.20;99.90;;;;;;5093029;28;20205;-81
2022/03/30 11:24:13;;;;;;;23.10;15.30;;;13.30;99.90;;;;;;5093109;28;20212;-81
2022/03/30 11:27:20;;;;;;;19.63;13.80;;;13.10;99.90;;;;;;5091740;28;20264;-81
2022/03/30 11:30:14;;;;;;;20.70;13.83;;;12.80;99.90;;;;;;5093152;28;20282;-81
2022/03/30 11:33:02;;;;;;;20.97;13.03;;;13.00;99.90;;;;;;5093592;28;20205;-80
2022/03/30 11:35:35;;;;;;;22.50;16.58;;;13.00;99.90;;;;;;5092683;28;20416;-81
2022/03/30 11:38:25;;;;;;;21.20;13.90;;;13.20;99.90;;;;;;5091839;28;20254;-80
2022/03/30 11:41:05;;;;;;;21.47;14.80;;;13.00;99.90;;;;;;5093163;28;20611;-81
2022/03/30 11:45:12;;;;;;;23.57;14.17;;;13.10;99.90;;;;;;5092812;28;20228;-81
2022/03/30 11:46:26;;;;;;;24.00;13.93;;;12.90;99.90;;;;;;5092323;28;20232;-80
2022/03/30 11:49:00;;;;;;;22.63;13.77;;;13.00;99.90;;;;;;5093041;28;20209;-81
2022/03/30 11:51:28;;;;;;;24.37;14.20;;;12.80;99.90;;;;;;5092776;28;20250;-82
2022/03/30 11:54:11;;;;;;;19.17;13.50;;;13.20;99.90;;;;;;5091694;28;20208;-81
2022/03/30 11:56:38;;;;;;;24.00;14.53;;;12.80;99.90;;;;;;5092776;28;20203;-81
2022/03/30 11:59:04;;;;;;;22.13;14.47;;;12.90;99.90;;;;;;5092627;28;20197;-81
2022/03/30 12:01:35;;;;;;;19.00;14.43;;;13.30;99.90;;;;;;5092220;28;20205;-80
2022/03/30 12:04:04;;;;;;;18.37;14.40;;;13.30;99.90;;;;;;5091940;28;20209;-81
2022/03/30 12:06:32;;;;;;;22.67;14.73;;;13.50;99.90;;;;;;5092818;28;20208;-80
2022/03/30 12:08:59;;;;;;;19.50;14.10;;;13.90;99.90;;;;;;5093049;28;20244;-80
2022/03/30 12:11:29;;;;;;;18.57;14.07;;;13.80;99.90;;;;;;5092761;28;20201;-81
2022/03/30 12:13:57;;;;;;;20.83;15.03;;;13.30;99.90;;;;;;5092826;28;20197;-80
2022/03/30 12:16:26;;;;;;;22.60;13.77;;;13.30;99.90;;;;;;5093814;28;20212;-79
2022/03/30 12:18:55;;;;;;;23.30;14.00;;;13.50;99.90;;;;;;5096889;28;20235;-80
2022/03/30 12:21:27;;;;;;;19.87;14.57;;;13.50;99.90;;;;;;5100656;28;20189;-80
2022/03/30 12:23:55;;;;;;;23.97;15.17;;;14.00;99.90;;;;;;5100419;28;20576;-79
2022/03/30 12:26:25;;;;;;;17.00;14.53;;;14.60;99.90;;;;;;5097669;28;20185;-81
2022/03/30 12:29:01;;;;;;;23.70;14.70;;;14.60;99.90;;;;;;5097918;28;20233;-79
2022/03/30 12:31:33;;;;;;;23.80;14.47;;;15.00;99.90;;;;;;5103939;28;20207;-74
2022/03/30 12:34:09;;;;;;;21.37;14.10;;;15.20;99.90;;;;;;5119504;28;20201;-81
2022/03/30 12:36:43;;;;;;;22.20;14.87;;;15.00;99.90;;;;;;5118589;28;20212;-79
2022/03/30 12:39:16;;;;;;;20.00;15.07;;;14.50;99.90;;;;;;5117562;28;20209;-79
2022/03/30 12:41:44;;;;;;;23.70;14.43;;;14.20;99.90;;;;;;5116921;28;20205;-78
2022/03/30 12:44:11;;;;;;;17.90;14.47;;;14.10;99.90;;;;;;5117732;28;20201;-78
2022/03/30 12:46:39;;;;;;;20.10;13.97;;;14.70;99.90;;;;;;5117052;28;20209;-78
2022/03/30 12:49:08;;;;;;;20.17;13.97;;;15.20;99.90;;;;;;5116785;28;20240;-79
2022/03/30 12:51:36;;;;;;;20.17;14.30;;;14.80;99.90;;;;;;5116609;28;20206;-77
2022/03/30 12:54:20;;;;;;;19.30;13.43;;;15.10;99.90;;;;;;5116538;28;20591;-78